Wednesday, October 18, 2017, 3:38 AM EDT
Back to Local

KUNV, State College, University Park Airport

Location: State College, PA, United States Lat: 40.85
Local Time: 3:38 AM EDT ( 7:38 GMT) Lon: -77.85
Time Zone: US/Eastern Elev: 1240 ft

Show me the last for .
Show Decoded

2017-10-18 03:15 METAR KUNV 180715Z AUTO 23005KT 10SM SCT070 SCT095 SCT110 07/03 A3030 RMK AO2
                 T00700032 =
2017-10-18 02:55 METAR KUNV 180655Z AUTO 24005KT 10SM SCT095 08/04 A3030 RMK AO2 T00810035 =
2017-10-18 02:30 METAR KUNV 180630Z AUTO 25004KT 10SM SCT075 SCT085 SCT095 09/03 A3030 RMK AO2
                 T00900033 =
2017-10-18 02:15 METAR KUNV 180615Z AUTO 28003KT 10SM SCT075 SCT085 09/04 A3030 RMK AO2 T00850035
                 =
2017-10-18 01:55 METAR KUNV 180555Z AUTO 25004KT 10SM SCT070 SCT085 SCT110 08/03 A3030 RMK AO2
                 T00810034 10100 20063 =
2017-10-18 01:35 METAR KUNV 180535Z AUTO 26006KT 10SM SCT075 SCT090 08/04 A3030 RMK AO2 T00800035
                 =
2017-10-18 01:15 METAR KUNV 180515Z AUTO 27005KT 10SM SCT075 SCT090 09/03 A3030 RMK AO2 T00850034
                 =
2017-10-18 00:55 METAR KUNV 180455Z AUTO 23005KT 10SM SCT065 SCT075 SCT090 07/03 A3029 RMK AO2
                 T00660034 =
2017-10-18 00:35 METAR KUNV 180435Z AUTO 26005KT 10SM SCT065 SCT075 SCT100 08/04 A3029 RMK AO2
                 T00820035 =
2017-10-18 00:15 METAR KUNV 180415Z AUTO 26006KT 10SM CLR 09/04 A3029 RMK AO2 T00870035 =
2017-10-17 23:55 METAR KUNV 180355Z AUTO 25007KT 10SM CLR 09/04 A3029 RMK AO2 T00860035 401620000
                 =
2017-10-17 23:35 METAR KUNV 180335Z AUTO 26005KT 10SM SCT110 09/04 A3029 RMK AO2 T00850035 =
2017-10-17 23:15 METAR KUNV 180315Z AUTO 26004KT 10SM SCT110 09/03 A3029 RMK AO2 T00920032 =
2017-10-17 22:55 METAR KUNV 180255Z AUTO 23006KT 10SM SCT060 SCT070 SCT080 09/03 A3028 RMK AO2
                 T00920032 =
2017-10-17 22:35 METAR KUNV 180235Z AUTO 23006KT 10SM SCT060 SCT070 09/03 A3028 RMK AO2 T00910032
                 =
2017-10-17 22:10 METAR KUNV 180210Z AUTO 23005KT 10SM SCT075 SCT095 10/03 A3028 RMK AO2 T00990032
                 =
2017-10-17 20:53 METAR KUNV 180053Z 20006KT 10SM SCT070 SCT100 10/03 A3026 =
2017-10-17 19:53 METAR KUNV 172353Z 20007KT 10SM SKC 10/03 A3026 =
2017-10-17 18:53 METAR KUNV 172253Z 21004KT 10SM SKC 13/03 A3025 =
2017-10-17 17:53 METAR KUNV 172153Z 21007KT 10SM SKC 14/03 A3023 =
2017-10-17 16:53 METAR KUNV 172053Z 20008KT 10SM SKC 16/03 A3024 =
2017-10-17 15:53 METAR KUNV 171953Z 25010KT 10SM SKC 16/02 A3025 =
2017-10-17 14:53 METAR KUNV 171853Z 23004KT 10SM SKC 15/02 A3026 =
2017-10-17 13:53 METAR KUNV 171753Z 23009KT 10SM FEW045 15/02 A3028 =
2017-10-17 12:53 METAR KUNV 171653Z 24003KT 10SM FEW045 14/02 A3031 =
2017-10-17 11:53 METAR KUNV 171553Z 24005KT 10SM SKC 12/02 A3034 =
2017-10-17 10:53 METAR KUNV 171453Z 00000KT 10SM SKC 09/02 A3034 =
2017-10-17 09:53 METAR KUNV 171353Z 00000KT 10SM SKC 06/02 A3035 =
2017-10-17 08:53 METAR KUNV 171253Z 00000KT 10SM SKC 03/01 A3036 =
2017-10-17 07:53 METAR KUNV 171153Z 00000KT 10SM SKC 00/00 A3034 =
2017-10-17 06:53 METAR KUNV 171053Z 00000KT 10SM SKC 01/00 A3033 =
2017-10-17 05:53 METAR KUNV 170953Z 00000KT 10SM SKC 00/00 A3032 =
2017-10-17 05:30 METAR KUNV 170930Z AUTO 00000KT 10SM SCT110 02/00 A3031 RMK AO2 T00151002 =
2017-10-17 05:15 METAR KUNV 170915Z AUTO 00000KT 10SM SCT110 02/00 A3031 RMK AO2 T00171001 =
2017-10-17 04:55 METAR KUNV 170855Z AUTO 00000KT 10SM SCT110 02/00 A3031 RMK AO2 T00200000 =
2017-10-17 04:35 METAR KUNV 170835Z AUTO 00000KT 10SM SCT110 02/00 A3030 RMK AO2 T00161003 =
2017-10-17 04:15 METAR KUNV 170815Z AUTO 00000KT 10SM CLR 03/00 A3030 RMK AO2 T00250000 =
2017-10-17 03:55 METAR KUNV 170755Z AUTO 00000KT 10SM CLR 02/00 A3029 RMK AO2 T00200000 =

Support USWX by starting your Amazon purchase here.